This is the latest recevied weather packets stored in our database for station/object OE-11204. If no packets are shown the sender has not sent any weather packets the latest 10 day(s).
| Time | Temp. | Humidity | Pressure | Rain* | Wind** | Luminosity | Snow |
|---|---|---|---|---|---|---|---|
| 1787613915 | 17.78° C | 81% | 1016.5 hPa | 0 mm | - | 0 W/m² | - |
| 1787613315 | 17.78° C | 78% | 1016.3 hPa | 0 mm | - | 0 W/m² | - |
| 1787612714 | 18.33° C | 75% | 1016.4 hPa | 0 mm | - | 0 W/m² | - |
| 1787612115 | 18.33° C | 80% | 1016.6 hPa | 0 mm | - | 0 W/m² | - |
| 1787611288 | 18.33° C | 82% | 1016.8 hPa | 0 mm | - | 0 W/m² | - |
| 1787610914 | 18.33° C | 80% | 1017 hPa | 0 mm | - | 0 W/m² | - |
| 1787610315 | 18.33° C | 79% | 1017.1 hPa | 0 mm | - | 0 W/m² | - |
| 1787609488 | 18.33° C | 81% | 1017.5 hPa | 0 mm | - | 0 W/m² | - |
| 1787609115 | 18.33° C | 81% | 1017.1 hPa | 0 mm | - | 0 W/m² | - |
| 1787607688 | 18.33° C | 80% | 1017 hPa | 0 mm | - | 0 W/m² | - |
| 1787607315 | 18.89° C | 78% | 1016.9 hPa | 0 mm | - | 0 W/m² | - |
| 1787606714 | 18.89° C | 79% | 1016.9 hPa | 0 mm | - | 0 W/m² | - |
| 1787605888 | 18.89° C | 77% | 1016.7 hPa | 0 mm | - | 0 W/m² | - |
| 1787605515 | 18.89° C | 75% | 1016.6 hPa | 0 mm | - | 0 W/m² | - |
| 1787604915 | 18.89° C | 75% | 1016.7 hPa | 0 mm | - | 0 W/m² | - |
| 1787604088 | 19.44° C | 74% | 1016.6 hPa | 0 mm | - | 0 W/m² | - |
| 1787603714 | 18.89° C | 75% | 1016.5 hPa | 0 mm | - | 0 W/m² | - |
| 1787603115 | 18.89° C | 79% | 1016.5 hPa | 0 mm | - | 0 W/m² | - |
| 1787602526 | 18.89° C | 78% | 1016.3 hPa | 0 mm | - | 0 W/m² | - |
| 1787601915 | 19.44° C | 78% | 1016.3 hPa | 0 mm | - | 0 W/m² | - |
| 1787601315 | 19.44° C | 79% | 1016 hPa | 0 mm | - | 0 W/m² | - |
| 1787600488 | 20° C | 74% | 1015.5 hPa | 0 mm | - | 0 W/m² | - |
| 1787600115 | 20.56° C | 68% | 1015.2 hPa | 0 mm | - | 0 W/m² | - |
| 1787599514 | 20.56° C | 72% | 1014.9 hPa | 0 mm | - | 0 W/m² | - |
| 1787598688 | 21.11° C | 70% | 1014.7 hPa | 0 mm | - | 0 W/m² | - |
* Rain latest hour (hover to see other rain measurements)
** Current wind speed in m/s (hover to see current wind gust speed)